METAR stanice u blizini

 

LYBE - Beograd / Surčin, Srbija
Ažurirano: 27/01/2020 10:00
Slaba kiša, Mist, Pretežno oblačno
Slaba kiša, Mist, Pretežno oblačno
 Pravac vetra ZSZ
Vetar: ZSZ 13 km/h
Temperatura: 3°C
Osećaj hladnoće: -1°C
Tačka rose: 3°C
Vlažnost: 100%
Pritisak: 1018 hPa
Pregled: Slaba kiša, Mist
Oblaci: Mostly Cloudy
Vidljivost: 2 km
Cloud details: Mostly Cloudy 91 m
2020/01/27 09:00 LYBE 270900Z 30007KT 2000 -RA BR BKN003 03/03 Q1018 NOSIG
LYBT - Beograd / Batajnica, Srbija
Ažurirano: 27/01/2020 10:00
Slaba kiša, Mist, Pretežno oblačno
Slaba kiša, Mist, Pretežno oblačno
 Pravac vetra Z
Vetar: Z 9 km/h
Temperatura: 3°C
Osećaj hladnoće: 0°C
Tačka rose: 3°C
Vlažnost: 100%
Pritisak: 1018 hPa
Pregled: Slaba kiša, Mist
Oblaci: Mostly Cloudy
Vidljivost: 3 km
Cloud details: Partly Cloudy 152 m
Mostly Cloudy 488 m
2020/01/27 09:00 LYBT 270900Z 26005KT 3000 -RA BR SCT005 BKN016 03/03 Q1018 NOSIG
LYVR - Vršac, Srbija
Ažurirano: 27/01/2020 10:00
Slaba kiša, Mist, Pretežno oblačno
Slaba kiša, Mist, Pretežno oblačno
 Pravac vetra Z
Vetar: Z 4 km/h
Temperatura: 5°C
Tačka rose: 5°C
Vlažnost: 100%
Pritisak: 1018 hPa
Pregled: Slaba kiša, Mist
Oblaci: Mostly Cloudy
Vidljivost: 2 km
Cloud details: Mostly Cloudy 305 m
2020/01/27 09:00 LYVR 270900Z 27002KT 2000 -RA BR BKN010 05/05 Q1018 NOSIG
 
LYKV - Lađevci, Srbija
Ažurirano: 27/01/2020 10:00
Slaba kiša, Magla, Pretežno oblačno
Slaba kiša, Magla, Pretežno oblačno
 Pravac vetra calm
Vetar: Tišina
Temperatura: 4°C
Tačka rose: 4°C
Vlažnost: 100%
Pritisak: 1017 hPa
Pregled: Slaba kiša, Magla
Oblaci: Mostly Cloudy
Vidljivost: 0 km
Cloud details: Mostly Cloudy 91 m
Mostly Cloudy 701 m
2020/01/27 09:00 LYKV 270900Z 00000KT 0200 -RA FG BKN003 BKN023 04/04 Q1017 NOSIG
LYNI - Niš, Srbija
Ažurirano: 27/01/2020 10:00
Mist, Pretežno oblačno
Mist, Pretežno oblačno
 Pravac vetra calm
Vetar: Tišina
Temperatura: 5°C
Tačka rose: 5°C
Vlažnost: 100%
Pritisak: 1017 hPa
Pregled: Mist
Oblaci: Mostly Cloudy
Vidljivost: 2 km
Cloud details: Few Clouds 274 m
Partly Cloudy 549 m
Mostly Cloudy 823 m
2020/01/27 09:00 LYNI 270900Z 00000KT 1500 BR FEW009 SCT018 BKN027 05/05 Q1017 NOSIG
BKPR - Priština, Srbija
Ažurirano: 27/01/2020 10:30
Mist, Pretežno oblačno
Mist, Pretežno oblačno
 Pravac vetra varies
Vetar: varies 2 km/h
Temperatura: 6°C
Tačka rose: 4°C
Vlažnost: 87%
Pritisak: 1016 hPa
Pregled: Mist
Oblaci: Mostly Cloudy
Vidljivost: 3 km
Cloud details: Partly Cloudy 610 m
Mostly Cloudy 1219 m
2020/01/27 09:30 BKPR 270930Z VRB01KT 2500 BR SCT020 BKN040 06/04 Q1016 BECMG 5000 RMK 17010095
 
LHPP - Pecs / Pogany, Hungary
Ažurirano: 27/01/2020 09:45
Mist, Delimično oblačno
Mist, Delimično oblačno
 Pravac vetra Z
Vetar: Z 6 km/h
Temperatura: 1°C
Tačka rose: 0°C
Vlažnost: 93%
Pritisak: 1019 hPa
Pregled: Mist
Oblaci: Partly Cloudy
Vidljivost: 2 km
2020/01/27 08:45 LHPP 270845Z 26003KT 2000 BR NSC 01/00 Q1019
LHUD - Szeged, Hungary
Ažurirano: 04/07/2019 01:45
NOT Current
Vedro
Vedro
 Pravac vetra S
Vetar: S 7 km/h
Temperatura: 18°C
Tačka rose: 13°C
Vlažnost: 73%
Pritisak: 1019 hPa
Pregled: Vedro
Vidljivost: greater than 10 km
2019/07/03 23:45 LHUD 032345Z 35004KT CAVOK 18/13 Q1019
LRTR - Timisoara, Romania
Ažurirano: 27/01/2020 10:00
Slaba kiša, Mist, Oblačno
Slaba kiša, Mist, Oblačno
 Pravac vetra ZSZ
Vetar: ZSZ 7 km/h
Temperatura: 5°C
Osećaj hladnoće: 3°C
Tačka rose: 5°C
Vlažnost: 100%
Pritisak: 1018 hPa
Pregled: Slaba kiša, Mist
Oblaci: Oblačno
Vidljivost: 1 km
Cloud details: Few Clouds 30 m
Mostly Cloudy 183 m
Oblačno 1067 m
2020/01/27 09:00 LRTR 270900Z 29004KT 1000 R11/1200U R29/1600D -RA BR FEW001 BKN006 OVC035 05/05 Q1018 R11/29//95 TEMPO 0800 -RA FG
 
LRCV - Craiova, Romania
Ažurirano: 27/01/2020 10:00
Slaba kiša, Pretežno oblačno
Slaba kiša, Pretežno oblačno
 Pravac vetra SZ
Vetar: SZ 9 km/h
Temperatura: 3°C
Osećaj hladnoće: 0°C
Tačka rose: 1°C
Vlažnost: 87%
Pritisak: 1017 hPa
Pregled: Light Rain
Oblaci: Mostly Cloudy
Vidljivost: 6 km
Cloud details: Mostly Cloudy 1463 m
2020/01/27 09:00 LRCV 270900Z 32005KT 6000 -RA BKN048 03/01 Q1017 R27/29//95
LBSF - Sofia, Bulgaria
Ažurirano: 27/01/2020 10:00
Slaba kiša, Mist, Oblačno
Slaba kiša, Mist, Oblačno
 Pravac vetra varies
Vetar: varies 4 km/h
Temperatura: 4°C
Tačka rose: 3°C
Vlažnost: 93%
Pritisak: 1016 hPa
Pregled: Slaba kiša, Mist
Oblaci: Oblačno
Vidljivost: 4 km
Cloud details: Oblačno 1219 m
2020/01/27 09:00 LBSF 270900Z VRB02KT 3500 -RA BR OVC040 04/03 Q1016 R99/29//95 NOSIG
LWSK - Skoplje, Makedonija
Ažurirano: 27/01/2020 10:00
Mist, Pretežno oblačno
Mist, Pretežno oblačno
 Pravac vetra calm
Vetar: Tišina
Temperatura: 5°C
Tačka rose: 4°C
Vlažnost: 93%
Pritisak: 1017 hPa
Pregled: Mist
Oblaci: Mostly Cloudy
Vidljivost: 2 km
Cloud details: Partly Cloudy 122 m
Mostly Cloudy 914 m
2020/01/27 09:00 LWSK 270900Z 00000KT 1900 BR SCT004 BKN030 05/04 Q1017 NOSIG
 
LYPG - Podgorica, Crna Gora
Ažurirano: 27/01/2020 10:00
Mostly Cloudy
Mostly Cloudy
 Pravac vetra varies
Vetar: varies 4 km/h
Temperatura: 9°C
Tačka rose: 9°C
Vlažnost: 100%
Pritisak: 1018 hPa
Oblaci: Mostly Cloudy
Vidljivost: 10 km
Cloud details: Partly Cloudy 1219 m
Mostly Cloudy 2438 m
2020/01/27 09:00 LYPG 270900Z VRB02KT 9999 SCT040 BKN080 09/09 Q1018 NOSIG
LQSA - Sarajevo, Bosna i Hercegovina
Ažurirano: 27/01/2020 10:00
Magla, Oblačno
Magla, Oblačno
 Pravac vetra calm
Vetar: Tišina
Temperatura: 3°C
Tačka rose: 3°C
Vlažnost: 100%
Pritisak: 1018 hPa
Pregled: Magla
Oblaci: Oblačno
Vidljivost: 0 km
Cloud details: Partly Cloudy 30 m
Mostly Cloudy 183 m
Oblačno 610 m
2020/01/27 09:00 LQSA 270900Z 00000KT 0300 R11/0300U FG SCT001 BKN006 OVC020 03/03 Q1018 BECMG 0600 SCT006
LDOS - Osijek, Hrvatksa
Ažurirano: 27/01/2020 10:00
Mist, Oblačno
Mist, Oblačno
 Pravac vetra ZSZ
Vetar: ZSZ 11 km/h
Temperatura: 1°C
Osećaj hladnoće: -2°C
Tačka rose: 1°C
Vlažnost: 100%
Pritisak: 1019 hPa
Pregled: Mist
Oblaci: Oblačno
Vidljivost: 3 km
Cloud details: Partly Cloudy 213 m
Oblačno 305 m
2020/01/27 09:00 LDOS 270900Z 29006KT 3000 BR SCT007 OVC010 01/01 Q1019